sensor_id;sensor_type;location;lat;lon;timestamp;pressure;altitude;pressure_sealevel;temperature;humidity
7614;BME280;3848;42.016;23.098;2024-03-06T00:02:19;96858.78;;;6.45;100.00
7614;BME280;3848;42.016;23.098;2024-03-06T00:04:48;96806.56;;;6.14;100.00
7614;BME280;3848;42.016;23.098;2024-03-06T00:07:15;96863.81;;;6.39;100.00
7614;BME280;3848;42.016;23.098;2024-03-06T00:09:42;96866.31;;;6.28;100.00
7614;BME280;3848;42.016;23.098;2024-03-06T00:12:10;96864.66;;;6.29;100.00
7614;BME280;3848;42.016;23.098;2024-03-06T00:14:37;96859.53;;;6.20;100.00
7614;BME280;3848;42.016;23.098;2024-03-06T00:17:04;96833.44;;;6.07;100.00
7614;BME280;3848;42.016;23.098;2024-03-06T00:19:32;96867.09;;;6.17;100.00
7614;BME280;3848;42.016;23.098;2024-03-06T00:22:01;96862.91;;;6.17;100.00
7614;BME280;3848;42.016;23.098;2024-03-06T00:24:28;96867.09;;;6.17;100.00
7614;BME280;3848;42.016;23.098;2024-03-06T00:26:55;96872.97;;;6.17;100.00
7614;BME280;3848;42.016;23.098;2024-03-06T00:29:22;96851.94;;;6.06;100.00
7614;BME280;3848;42.016;23.098;2024-03-06T00:31:49;96873.00;;;6.20;100.00
7614;BME280;3848;42.016;23.098;2024-03-06T00:34:16;96871.28;;;6.16;100.00
7614;BME280;3848;42.016;23.098;2024-03-06T00:36:43;96865.41;;;6.13;100.00
7614;BME280;3848;42.016;23.098;2024-03-06T00:39:12;96883.09;;;6.22;100.00
7614;BME280;3848;42.016;23.098;2024-03-06T00:41:40;96877.19;;;6.18;100.00
7614;BME280;3848;42.016;23.098;2024-03-06T00:44:07;96878.03;;;6.17;100.00
7614;BME280;3848;42.016;23.098;2024-03-06T00:46:34;96877.19;;;6.18;100.00
7614;BME280;3848;42.016;23.098;2024-03-06T00:49:01;96884.75;;;6.20;100.00
7614;BME280;3848;42.016;23.098;2024-03-06T00:51:28;96886.44;;;6.16;100.00
7614;BME280;3848;42.016;23.098;2024-03-06T00:53:56;96892.31;;;6.17;100.00
7614;BME280;3848;42.016;23.098;2024-03-06T00:56:24;96836.59;;;5.80;100.00
7614;BME280;3848;42.016;23.098;2024-03-06T00:58:51;96875.47;;;6.06;100.00
7614;BME280;3848;42.016;23.098;2024-03-06T01:01:18;96882.19;;;6.04;100.00
7614;BME280;3848;42.016;23.098;2024-03-06T01:03:45;96878.81;;;6.05;100.00
7614;BME280;3848;42.016;23.098;2024-03-06T01:06:12;96861.94;;;5.95;100.00
7614;BME280;3848;42.016;23.098;2024-03-06T01:08:39;96882.22;;;6.14;100.00
7614;BME280;3848;42.016;23.098;2024-03-06T01:11:06;96887.25;;;6.09;100.00
7614;BME280;3848;42.016;23.098;2024-03-06T01:13:34;96888.91;;;6.05;100.00
7614;BME280;3848;42.016;23.098;2024-03-06T01:16:01;96889.72;;;6.03;100.00
7614;BME280;3848;42.016;23.098;2024-03-06T01:18:29;96893.88;;;5.96;100.00
7614;BME280;3848;42.016;23.098;2024-03-06T01:20:56;96898.09;;;5.97;100.00
7614;BME280;3848;42.016;23.098;2024-03-06T01:23:23;96898.91;;;5.90;100.00
7614;BME280;3848;42.016;23.098;2024-03-06T01:25:50;96900.56;;;5.90;100.00
7614;BME280;3848;42.016;23.098;2024-03-06T01:28:16;96896.34;;;5.89;100.00
7614;BME280;3848;42.016;23.098;2024-03-06T01:30:45;96865.13;;;5.71;100.00
7614;BME280;3848;42.016;23.098;2024-03-06T01:33:12;96888.81;;;5.93;100.00
7614;BME280;3848;42.016;23.098;2024-03-06T01:35:39;96914.16;;;6.08;100.00
7614;BME280;3848;42.016;23.098;2024-03-06T01:38:06;96906.47;;;5.93;100.00
7614;BME280;3848;42.016;23.098;2024-03-06T01:40:34;96915.72;;;5.91;100.00
7614;BME280;3848;42.016;23.098;2024-03-06T01:43:02;96911.38;;;5.79;100.00
7614;BME280;3848;42.016;23.098;2024-03-06T01:45:29;96919.78;;;5.78;100.00
7614;BME280;3848;42.016;23.098;2024-03-06T01:47:58;96913.88;;;5.75;100.00
7614;BME280;3848;42.016;23.098;2024-03-06T01:50:25;96866.63;;;5.43;100.00
7614;BME280;3848;42.016;23.098;2024-03-06T01:52:52;96913.88;;;5.73;100.00
7614;BME280;3848;42.016;23.098;2024-03-06T01:55:19;96902.06;;;5.68;100.00
7614;BME280;3848;42.016;23.098;2024-03-06T01:57:46;96917.25;;;5.75;100.00
7614;BME280;3848;42.016;23.098;2024-03-06T02:00:14;96913.03;;;5.76;100.00
7614;BME280;3848;42.016;23.098;2024-03-06T02:02:42;96914.72;;;5.77;100.00
7614;BME280;3848;42.016;23.098;2024-03-06T02:05:12;96907.03;;;5.60;100.00
7614;BME280;3848;42.016;23.098;2024-03-06T02:07:39;96898.59;;;5.52;100.00
7614;BME280;3848;42.016;23.098;2024-03-06T02:10:07;96918.78;;;5.57;100.00
7614;BME280;3848;42.016;23.098;2024-03-06T02:12:35;96923.75;;;5.47;100.00
7614;BME280;3848;42.016;23.098;2024-03-06T02:15:03;96932.16;;;5.48;100.00
7614;BME280;3848;42.016;23.098;2024-03-06T02:17:31;96936.31;;;5.41;100.00
7614;BME280;3848;42.016;23.098;2024-03-06T02:20:00;96925.22;;;5.23;100.00
7614;BME280;3848;42.016;23.098;2024-03-06T02:22:28;96926.91;;;5.25;100.00
7614;BME280;3848;42.016;23.098;2024-03-06T02:24:55;96939.59;;;5.36;100.00
7614;BME280;3848;42.016;23.098;2024-03-06T02:27:22;96937.06;;;5.34;100.00
7614;BME280;3848;42.016;23.098;2024-03-06T02:29:49;96944.63;;;5.36;100.00
7614;BME280;3848;42.016;23.098;2024-03-06T02:32:16;96942.03;;;5.27;100.00
7614;BME280;3848;42.016;23.098;2024-03-06T02:34:43;96948.66;;;5.20;100.00
7614;BME280;3848;42.016;23.098;2024-03-06T02:37:10;96944.53;;;5.24;100.00
7614;BME280;3848;42.016;23.098;2024-03-06T02:39:39;96955.44;;;5.24;100.00
7614;BME280;3848;42.016;23.098;2024-03-06T02:42:06;96955.44;;;5.24;100.00
7614;BME280;3848;42.016;23.098;2024-03-06T02:44:33;96956.22;;;5.18;100.00
7614;BME280;3848;42.016;23.098;2024-03-06T02:47:00;96962.16;;;5.22;100.00
7614;BME280;3848;42.016;23.098;2024-03-06T02:49:27;96942.63;;;5.01;100.00
7614;BME280;3848;42.016;23.098;2024-03-06T02:51:54;96965.31;;;5.04;100.00
7614;BME280;3848;42.016;23.098;2024-03-06T02:54:22;96945.03;;;4.90;100.00
7614;BME280;3848;42.016;23.098;2024-03-06T02:56:52;96968.66;;;5.02;100.00
7614;BME280;3848;42.016;23.098;2024-03-06T02:59:19;96968.66;;;5.02;100.00
7614;BME280;3848;42.016;23.098;2024-03-06T03:01:46;96969.50;;;5.04;100.00
7614;BME280;3848;42.016;23.098;2024-03-06T03:04:13;96977.09;;;5.07;100.00
7614;BME280;3848;42.016;23.098;2024-03-06T03:06:40;96962.78;;;5.01;100.00
7614;BME280;3848;42.016;23.098;2024-03-06T03:09:07;96970.34;;;5.03;100.00
7614;BME280;3848;42.016;23.098;2024-03-06T03:11:37;96973.78;;;5.11;100.00
7614;BME280;3848;42.016;23.098;2024-03-06T03:14:05;96958.50;;;4.97;100.00
7614;BME280;3848;42.016;23.098;2024-03-06T03:16:32;96987.22;;;5.11;100.00
7614;BME280;3848;42.016;23.098;2024-03-06T03:19:01;96936.47;;;4.76;100.00
7614;BME280;3848;42.016;23.098;2024-03-06T03:21:28;96972.78;;;4.97;100.00
7614;BME280;3848;42.016;23.098;2024-03-06T03:23:54;96989.56;;;4.98;100.00
7614;BME280;3848;42.016;23.098;2024-03-06T03:26:22;96999.59;;;4.95;100.00
7614;BME280;3848;42.016;23.098;2024-03-06T03:28:49;97002.13;;;4.95;100.00
7614;BME280;3848;42.016;23.098;2024-03-06T03:31:17;97002.09;;;4.92;100.00
7614;BME280;3848;42.016;23.098;2024-03-06T03:33:44;97006.25;;;4.88;100.00
7614;BME280;3848;42.016;23.098;2024-03-06T03:36:11;96944.41;;;4.39;100.00
7614;BME280;3848;42.016;23.098;2024-03-06T03:38:38;97012.78;;;4.75;100.00
7614;BME280;3848;42.016;23.098;2024-03-06T03:41:07;96993.34;;;4.62;100.00
7614;BME280;3848;42.016;23.098;2024-03-06T03:43:34;97010.28;;;4.75;100.00
7614;BME280;3848;42.016;23.098;2024-03-06T03:46:02;97002.63;;;4.66;100.00
7614;BME280;3848;42.016;23.098;2024-03-06T03:48:31;97011.00;;;4.67;100.00
7614;BME280;3848;42.016;23.098;2024-03-06T03:51:01;97011.84;;;4.67;100.00
7614;BME280;3848;42.016;23.098;2024-03-06T03:53:29;96955.22;;;4.33;100.00
7614;BME280;3848;42.016;23.098;2024-03-06T03:55:56;96997.41;;;4.54;100.00
7614;BME280;3848;42.016;23.098;2024-03-06T03:58:23;97023.53;;;4.62;100.00
7614;BME280;3848;42.016;23.098;2024-03-06T04:00:50;97026.03;;;4.59;100.00
7614;BME280;3848;42.016;23.098;2024-03-06T04:03:19;97023.41;;;4.53;100.00
7614;BME280;3848;42.016;23.098;2024-03-06T04:05:48;97020.16;;;4.60;100.00
7614;BME280;3848;42.016;23.098;2024-03-06T04:08:15;97010.84;;;4.54;100.00
7614;BME280;3848;42.016;23.098;2024-03-06T04:10:42;97018.50;;;4.61;100.00
7614;BME280;3848;42.016;23.098;2024-03-06T04:13:11;97005.81;;;4.54;100.00
7614;BME280;3848;42.016;23.098;2024-03-06T04:15:38;97016.81;;;4.61;100.00
7614;BME280;3848;42.016;23.098;2024-03-06T04:18:05;97016.72;;;4.56;100.00
7614;BME280;3848;42.016;23.098;2024-03-06T04:20:32;97003.19;;;4.47;100.00
7614;BME280;3848;42.016;23.098;2024-03-06T04:23:01;97030.25;;;4.63;100.00
7614;BME280;3848;42.016;23.098;2024-03-06T04:25:28;97037.91;;;4.71;100.00
7614;BME280;3848;42.016;23.098;2024-03-06T04:27:55;97033.69;;;4.68;100.00
7614;BME280;3848;42.016;23.098;2024-03-06T04:30:22;97039.47;;;4.63;100.00
7614;BME280;3848;42.016;23.098;2024-03-06T04:32:49;97036.09;;;4.59;100.00
7614;BME280;3848;42.016;23.098;2024-03-06T04:35:16;97034.31;;;4.53;100.00
7614;BME280;3848;42.016;23.098;2024-03-06T04:37:43;97036.72;;;4.46;100.00
7614;BME280;3848;42.016;23.098;2024-03-06T04:40:11;96990.94;;;4.11;100.00
7614;BME280;3848;42.016;23.098;2024-03-06T04:42:40;97035.63;;;4.28;100.00
7614;BME280;3848;42.016;23.098;2024-03-06T04:45:10;97034.69;;;4.20;100.00
7614;BME280;3848;42.016;23.098;2024-03-06T04:47:38;97023.59;;;4.09;100.00
7614;BME280;3848;42.016;23.098;2024-03-06T04:50:08;97047.91;;;4.10;100.00
7614;BME280;3848;42.016;23.098;2024-03-06T04:52:36;97032.59;;;3.95;100.00
7614;BME280;3848;42.016;23.098;2024-03-06T04:55:04;97048.56;;;3.97;100.00
7614;BME280;3848;42.016;23.098;2024-03-06T04:57:34;97052.66;;;3.92;100.00
7614;BME280;3848;42.016;23.098;2024-03-06T05:00:01;97053.44;;;3.89;100.00
7614;BME280;3848;42.016;23.098;2024-03-06T05:02:31;97048.44;;;3.91;100.00
7614;BME280;3848;42.016;23.098;2024-03-06T05:04:59;97045.88;;;3.88;100.00
7614;BME280;3848;42.016;23.098;2024-03-06T05:07:27;97043.47;;;3.95;100.00
7614;BME280;3848;42.016;23.098;2024-03-06T05:09:55;97053.63;;;4.00;100.00
7614;BME280;3848;42.016;23.098;2024-03-06T05:12:22;97048.66;;;4.03;100.00
7614;BME280;3848;42.016;23.098;2024-03-06T05:14:51;97048.69;;;4.06;100.00
7614;BME280;3848;42.016;23.098;2024-03-06T05:17:18;97054.44;;;3.97;100.00
7614;BME280;3848;42.016;23.098;2024-03-06T05:19:46;97066.22;;;4.00;100.00
7614;BME280;3848;42.016;23.098;2024-03-06T05:22:13;97058.44;;;3.86;100.00
7614;BME280;3848;42.016;23.098;2024-03-06T05:24:40;97001.34;;;3.31;100.00
7614;BME280;3848;42.016;23.098;2024-03-06T05:27:08;97069.78;;;3.64;100.00
7614;BME280;3848;42.016;23.098;2024-03-06T05:29:35;97082.03;;;3.49;100.00
7614;BME280;3848;42.016;23.098;2024-03-06T05:32:03;97075.66;;;3.21;100.00
7614;BME280;3848;42.016;23.098;2024-03-06T05:34:32;97082.34;;;3.21;100.00
7614;BME280;3848;42.016;23.098;2024-03-06T05:37:00;97068.84;;;3.14;100.00
7614;BME280;3848;42.016;23.098;2024-03-06T05:39:29;97027.53;;;2.98;100.00
7614;BME280;3848;42.016;23.098;2024-03-06T05:42:00;97083.53;;;3.38;100.00
7614;BME280;3848;42.016;23.098;2024-03-06T05:44:28;97081.19;;;3.47;100.00
7614;BME280;3848;42.016;23.098;2024-03-06T05:46:55;97078.72;;;3.50;100.00
7614;BME280;3848;42.016;23.098;2024-03-06T05:49:23;97084.75;;;3.58;100.00
7614;BME280;3848;42.016;23.098;2024-03-06T05:51:52;97094.91;;;3.66;100.00
7614;BME280;3848;42.016;23.098;2024-03-06T05:54:19;97082.38;;;3.67;100.00
7614;BME280;3848;42.016;23.098;2024-03-06T05:56:47;97087.59;;;3.77;100.00
7614;BME280;3848;42.016;23.098;2024-03-06T05:59:15;97092.72;;;3.83;100.00
7614;BME280;3848;42.016;23.098;2024-03-06T06:01:42;97101.22;;;3.91;100.00
7614;BME280;3848;42.016;23.098;2024-03-06T06:04:09;97092.16;;;3.99;100.00
7614;BME280;3848;42.016;23.098;2024-03-06T06:06:38;97096.16;;;3.88;100.00
7614;BME280;3848;42.016;23.098;2024-03-06T06:09:05;97099.56;;;3.93;100.00
7614;BME280;3848;42.016;23.098;2024-03-06T06:11:32;97083.41;;;3.77;100.00
7614;BME280;3848;42.016;23.098;2024-03-06T06:13:59;97096.91;;;3.84;100.00
7614;BME280;3848;42.016;23.098;2024-03-06T06:16:26;97101.03;;;3.79;100.00
7614;BME280;3848;42.016;23.098;2024-03-06T06:18:53;97102.66;;;3.77;100.00
7614;BME280;3848;42.016;23.098;2024-03-06T06:21:20;97105.94;;;3.74;100.00
7614;BME280;3848;42.016;23.098;2024-03-06T06:23:48;97106.59;;;3.64;100.00
7614;BME280;3848;42.016;23.098;2024-03-06T06:26:15;97106.59;;;3.64;100.00
7614;BME280;3848;42.016;23.098;2024-03-06T06:28:43;97102.53;;;3.71;100.00
7614;BME280;3848;42.016;23.098;2024-03-06T06:31:12;97101.53;;;3.61;100.00
7614;BME280;3848;42.016;23.098;2024-03-06T06:33:39;97095.19;;;3.80;100.00
7614;BME280;3848;42.016;23.098;2024-03-06T06:36:06;97096.03;;;3.80;100.00
7614;BME280;3848;42.016;23.098;2024-03-06T06:38:33;97103.56;;;3.80;100.00
7614;BME280;3848;42.016;23.098;2024-03-06T06:41:02;97103.34;;;3.70;100.00
7614;BME280;3848;42.016;23.098;2024-03-06T06:43:29;97111.13;;;3.82;100.00
7614;BME280;3848;42.016;23.098;2024-03-06T06:45:56;97103.66;;;3.86;100.00
7614;BME280;3848;42.016;23.098;2024-03-06T06:48:23;97104.69;;;3.96;100.00
7614;BME280;3848;42.016;23.098;2024-03-06T06:50:50;97105.47;;;3.95;100.00
7614;BME280;3848;42.016;23.098;2024-03-06T06:53:17;97107.03;;;3.88;100.00
7614;BME280;3848;42.016;23.098;2024-03-06T06:55:44;97104.56;;;3.90;100.00
7614;BME280;3848;42.016;23.098;2024-03-06T06:58:12;97108.81;;;3.94;100.00
7614;BME280;3848;42.016;23.098;2024-03-06T07:00:40;97106.81;;;4.24;100.00
7614;BME280;3848;42.016;23.098;2024-03-06T07:03:07;97104.47;;;4.35;100.00
7614;BME280;3848;42.016;23.098;2024-03-06T07:05:34;97093.44;;;4.25;100.00
7614;BME280;3848;42.016;23.098;2024-03-06T07:08:01;97104.53;;;4.38;100.00
7614;BME280;3848;42.016;23.098;2024-03-06T07:10:28;97112.38;;;4.58;100.00
7614;BME280;3848;42.016;23.098;2024-03-06T07:12:55;97103.28;;;4.66;100.00
7614;BME280;3848;42.016;23.098;2024-03-06T07:15:23;97090.16;;;4.87;100.00
7614;BME280;3848;42.016;23.098;2024-03-06T07:17:51;97113.19;;;5.17;100.00
7614;BME280;3848;42.016;23.098;2024-03-06T07:20:18;97120.91;;;5.28;100.00
7614;BME280;3848;42.016;23.098;2024-03-06T07:22:45;97116.91;;;5.45;100.00
7614;BME280;3848;42.016;23.098;2024-03-06T07:25:12;97108.38;;;5.36;100.00
7614;BME280;3848;42.016;23.098;2024-03-06T07:27:39;97119.25;;;5.30;100.00
7614;BME280;3848;42.016;23.098;2024-03-06T07:30:07;97098.22;;;5.27;100.00
7614;BME280;3848;42.016;23.098;2024-03-06T07:32:36;97112.75;;;5.50;100.00
7614;BME280;3848;42.016;23.098;2024-03-06T07:35:03;97070.53;;;5.30;100.00
7614;BME280;3848;42.016;23.098;2024-03-06T07:37:30;97101.94;;;5.61;100.00
7614;BME280;3848;42.016;23.098;2024-03-06T07:39:57;97105.41;;;5.70;100.00
7614;BME280;3848;42.016;23.098;2024-03-06T07:42:25;97078.38;;;5.57;100.00
7614;BME280;3848;42.016;23.098;2024-03-06T07:44:51;97100.25;;;5.60;100.00
7614;BME280;3848;42.016;23.098;2024-03-06T07:47:20;97103.81;;;5.77;100.00
7614;BME280;3848;42.016;23.098;2024-03-06T07:49:48;97099.63;;;5.82;100.00
7614;BME280;3848;42.016;23.098;2024-03-06T07:52:16;97093.94;;;5.98;100.00
7614;BME280;3848;42.016;23.098;2024-03-06T07:54:45;97073.03;;;6.08;100.00
7614;BME280;3848;42.016;23.098;2024-03-06T07:57:13;97085.84;;;6.34;100.00
7614;BME280;3848;42.016;23.098;2024-03-06T07:59:46;96963.44;;;5.74;100.00
7614;BME280;3848;42.016;23.098;2024-03-06T08:02:15;97098.75;;;6.72;100.00
7614;BME280;3848;42.016;23.098;2024-03-06T08:04:43;97046.50;;;6.59;100.00
7614;BME280;3848;42.016;23.098;2024-03-06T08:07:14;97101.50;;;7.09;100.00
7614;BME280;3848;42.016;23.098;2024-03-06T08:09:41;97093.84;;;7.00;100.00
7614;BME280;3848;42.016;23.098;2024-03-06T08:12:08;97093.13;;;7.25;100.00
7614;BME280;3848;42.016;23.098;2024-03-06T08:14:35;97097.41;;;7.36;100.00
7614;BME280;3848;42.016;23.098;2024-03-06T08:17:02;97042.50;;;6.99;100.00
7614;BME280;3848;42.016;23.098;2024-03-06T08:19:29;97091.53;;;7.46;100.00
7614;BME280;3848;42.016;23.098;2024-03-06T08:21:56;97094.09;;;7.53;100.00
7614;BME280;3848;42.016;23.098;2024-03-06T08:24:25;97089.09;;;7.73;100.00
7614;BME280;3848;42.016;23.098;2024-03-06T08:26:52;97092.47;;;7.90;100.00
7614;BME280;3848;42.016;23.098;2024-03-06T08:29:20;97073.94;;;8.02;100.00
7614;BME280;3848;42.016;23.098;2024-03-06T08:31:47;97083.25;;;8.17;100.00
7614;BME280;3848;42.016;23.098;2024-03-06T08:34:14;97084.97;;;8.36;100.00
7614;BME280;3848;42.016;23.098;2024-03-06T08:36:43;97069.75;;;8.48;100.00
7614;BME280;3848;42.016;23.098;2024-03-06T08:39:10;97070.59;;;8.49;100.00
7614;BME280;3848;42.016;23.098;2024-03-06T08:41:42;97052.03;;;8.53;100.00
7614;BME280;3848;42.016;23.098;2024-03-06T08:44:09;97075.63;;;8.72;100.00
7614;BME280;3848;42.016;23.098;2024-03-06T08:46:36;97077.31;;;8.73;100.00
7614;BME280;3848;42.016;23.098;2024-03-06T08:49:03;97075.59;;;8.99;100.00
7614;BME280;3848;42.016;23.098;2024-03-06T08:51:30;97071.31;;;9.21;100.00
7614;BME280;3848;42.016;23.098;2024-03-06T08:53:59;97072.94;;;9.33;100.00
7614;BME280;3848;42.016;23.098;2024-03-06T08:56:28;97070.38;;;9.43;100.00
7614;BME280;3848;42.016;23.098;2024-03-06T08:58:56;97072.81;;;9.62;100.00
7614;BME280;3848;42.016;23.098;2024-03-06T09:01:23;97070.09;;;9.89;100.00
7614;BME280;3848;42.016;23.098;2024-03-06T09:03:51;97061.56;;;9.98;100.00
7614;BME280;3848;42.016;23.098;2024-03-06T09:06:18;97070.97;;;9.87;100.00
7614;BME280;3848;42.016;23.098;2024-03-06T09:08:44;97054.81;;;9.97;100.00
7614;BME280;3848;42.016;23.098;2024-03-06T09:11:12;97058.75;;;10.37;100.00
7614;BME280;3848;42.016;23.098;2024-03-06T09:13:39;97052.72;;;10.51;100.00
7614;BME280;3848;42.016;23.098;2024-03-06T09:16:08;97056.75;;;10.73;100.00
7614;BME280;3848;42.016;23.098;2024-03-06T09:18:36;97052.22;;;11.01;100.00
7614;BME280;3848;42.016;23.098;2024-03-06T09:21:05;97040.91;;;11.28;100.00
7614;BME280;3848;42.016;23.098;2024-03-06T09:23:38;97037.22;;;11.50;100.00
7614;BME280;3848;42.016;23.098;2024-03-06T09:26:09;97039.38;;;11.79;100.00
7614;BME280;3848;42.016;23.098;2024-03-06T09:28:36;97034.75;;;12.04;100.00
7614;BME280;3848;42.016;23.098;2024-03-06T09:31:05;97034.00;;;11.99;100.00
7614;BME280;3848;42.016;23.098;2024-03-06T09:33:33;97035.41;;;12.17;100.00
7614;BME280;3848;42.016;23.098;2024-03-06T09:36:00;97031.22;;;12.14;100.00
7614;BME280;3848;42.016;23.098;2024-03-06T09:38:27;97031.81;;;12.30;100.00
7614;BME280;3848;42.016;23.098;2024-03-06T09:40:56;97036.59;;;12.50;100.00
7614;BME280;3848;42.016;23.098;2024-03-06T09:43:23;97024.63;;;12.54;100.00
7614;BME280;3848;42.016;23.098;2024-03-06T09:45:51;97033.59;;;12.74;100.00
7614;BME280;3848;42.016;23.098;2024-03-06T09:48:20;97017.69;;;13.05;100.00
7614;BME280;3848;42.016;23.098;2024-03-06T09:50:49;97023.16;;;13.30;100.00
7614;BME280;3848;42.016;23.098;2024-03-06T09:53:18;97013.53;;;13.44;100.00
7614;BME280;3848;42.016;23.098;2024-03-06T09:55:49;96997.84;;;13.61;100.00
7614;BME280;3848;42.016;23.098;2024-03-06T09:58:17;97010.78;;;13.90;90.91
7614;BME280;3848;42.016;23.098;2024-03-06T10:00:44;97002.72;;;14.43;87.11
7614;BME280;3848;42.016;23.098;2024-03-06T10:03:13;96993.63;;;14.96;85.50
7614;BME280;3848;42.016;23.098;2024-03-06T10:05:40;96995.13;;;15.64;81.82
7614;BME280;3848;42.016;23.098;2024-03-06T10:08:10;96988.31;;;16.42;74.33
7614;BME280;3848;42.016;23.098;2024-03-06T10:10:37;96986.09;;;17.08;67.57
7614;BME280;3848;42.016;23.098;2024-03-06T10:13:04;96984.72;;;17.44;63.19
7614;BME280;3848;42.016;23.098;2024-03-06T10:15:32;96972.81;;;17.87;62.50
7614;BME280;3848;42.016;23.098;2024-03-06T10:18:11;96967.72;;;18.27;61.11
7614;BME280;3848;42.016;23.098;2024-03-06T10:20:38;96968.34;;;18.75;59.85
7614;BME280;3848;42.016;23.098;2024-03-06T10:23:10;96945.97;;;19.14;57.87
7614;BME280;3848;42.016;23.098;2024-03-06T10:25:37;96950.28;;;19.33;57.06
7614;BME280;3848;42.016;23.098;2024-03-06T10:28:05;96946.97;;;19.86;59.22
7614;BME280;3848;42.016;23.098;2024-03-06T10:30:33;96956.72;;;20.32;56.17
7614;BME280;3848;42.016;23.098;2024-03-06T10:33:02;96946.84;;;20.58;50.35
7614;BME280;3848;42.016;23.098;2024-03-06T10:35:29;96927.03;;;20.91;54.47
7614;BME280;3848;42.016;23.098;2024-03-06T10:37:56;96936.16;;;20.81;49.19
7614;BME280;3848;42.016;23.098;2024-03-06T10:40:31;96940.03;;;20.22;49.17
7614;BME280;3848;42.016;23.098;2024-03-06T10:42:59;96919.31;;;20.06;48.51
7614;BME280;3848;42.016;23.098;2024-03-06T10:45:34;96918.47;;;20.23;49.40
7614;BME280;3848;42.016;23.098;2024-03-06T10:48:04;96919.66;;;20.68;49.87
7614;BME280;3848;42.016;23.098;2024-03-06T10:50:32;96917.88;;;20.86;49.34
7614;BME280;3848;42.016;23.098;2024-03-06T10:53:00;96912.88;;;20.83;49.19
7614;BME280;3848;42.016;23.098;2024-03-06T10:55:32;96890.78;;;20.93;49.88
7614;BME280;3848;42.016;23.098;2024-03-06T10:58:07;96896.03;;;21.24;49.99
7614;BME280;3848;42.016;23.098;2024-03-06T11:00:37;96845.34;;;21.20;48.06
7614;BME280;3848;42.016;23.098;2024-03-06T11:03:08;96895.91;;;21.42;45.65
7614;BME280;3848;42.016;23.098;2024-03-06T11:05:37;96887.22;;;21.58;48.48
7614;BME280;3848;42.016;23.098;2024-03-06T11:08:06;96883.72;;;21.59;45.47
7614;BME280;3848;42.016;23.098;2024-03-06T11:10:37;96882.28;;;22.00;46.45
7614;BME280;3848;42.016;23.098;2024-03-06T11:13:08;96865.72;;;22.18;47.71
7614;BME280;3848;42.016;23.098;2024-03-06T11:15:36;96863.56;;;21.35;43.99
7614;BME280;3848;42.016;23.098;2024-03-06T11:21:32;96876.38;;;21.20;45.28
7614;BME280;3848;42.016;23.098;2024-03-06T11:24:23;96862.66;;;21.04;45.27
7614;BME280;3848;42.016;23.098;2024-03-06T11:26:55;96849.06;;;21.48;45.36
7614;BME280;3848;42.016;23.098;2024-03-06T11:29:27;96844.38;;;21.99;45.08
7614;BME280;3848;42.016;23.098;2024-03-06T11:32:00;96850.56;;;22.12;44.75
7614;BME280;3848;42.016;23.098;2024-03-06T11:34:26;96791.03;;;21.82;44.58
7614;BME280;3848;42.016;23.098;2024-03-06T11:36:55;96840.84;;;21.85;43.01
7614;BME280;3848;42.016;23.098;2024-03-06T11:39:22;96829.41;;;21.89;44.81
7614;BME280;3848;42.016;23.098;2024-03-06T11:41:51;96830.63;;;22.28;45.93
7614;BME280;3848;42.016;23.098;2024-03-06T11:44:19;96821.72;;;22.18;44.63
7614;BME280;3848;42.016;23.098;2024-03-06T11:46:49;96818.75;;;22.10;43.76
7614;BME280;3848;42.016;23.098;2024-03-06T11:49:20;96817.03;;;21.95;43.90
7614;BME280;3848;42.016;23.098;2024-03-06T11:51:47;96797.00;;;21.38;44.28
7614;BME280;3848;42.016;23.098;2024-03-06T11:54:15;96810.84;;;21.53;43.93
7614;BME280;3848;42.016;23.098;2024-03-06T11:56:44;96802.03;;;21.85;46.05
7614;BME280;3848;42.016;23.098;2024-03-06T11:59:13;96791.38;;;22.20;44.31
7614;BME280;3848;42.016;23.098;2024-03-06T12:01:41;96784.28;;;22.38;42.15
7614;BME280;3848;42.016;23.098;2024-03-06T12:04:08;96789.09;;;22.15;42.04
7614;BME280;3848;42.016;23.098;2024-03-06T12:06:37;96774.59;;;21.69;43.19
7614;BME280;3848;42.016;23.098;2024-03-06T12:09:04;96769.31;;;21.40;43.35
7614;BME280;3848;42.016;23.098;2024-03-06T12:11:36;96774.19;;;21.30;42.57
7614;BME280;3848;42.016;23.098;2024-03-06T12:14:04;96767.88;;;21.05;42.95
7614;BME280;3848;42.016;23.098;2024-03-06T12:16:32;96761.09;;;21.02;43.10
7614;BME280;3848;42.016;23.098;2024-03-06T12:18:59;96752.50;;;21.17;42.54
7614;BME280;3848;42.016;23.098;2024-03-06T12:21:31;96735.34;;;21.16;42.46
7614;BME280;3848;42.016;23.098;2024-03-06T12:24:04;96759.16;;;21.67;43.56
7614;BME280;3848;42.016;23.098;2024-03-06T12:26:31;96755.56;;;21.84;41.05
7614;BME280;3848;42.016;23.098;2024-03-06T12:29:06;96728.72;;;21.56;40.19
7614;BME280;3848;42.016;23.098;2024-03-06T12:31:36;96751.97;;;21.86;39.79
7614;BME280;3848;42.016;23.098;2024-03-06T12:34:04;96756.28;;;21.86;41.80
7614;BME280;3848;42.016;23.098;2024-03-06T12:36:32;96747.63;;;22.01;39.79
7614;BME280;3848;42.016;23.098;2024-03-06T12:39:01;96746.41;;;21.78;39.56
7614;BME280;3848;42.016;23.098;2024-03-06T12:41:28;96754.91;;;21.66;40.02
7614;BME280;3848;42.016;23.098;2024-03-06T12:43:56;96750.00;;;21.16;39.84
7614;BME280;3848;42.016;23.098;2024-03-06T12:46:23;96752.13;;;20.93;42.00
7614;BME280;3848;42.016;23.098;2024-03-06T12:48:53;96755.19;;;21.00;44.05
7614;BME280;3848;42.016;23.098;2024-03-06T12:51:22;96747.28;;;21.03;42.28
7614;BME280;3848;42.016;23.098;2024-03-06T12:53:49;96755.19;;;21.00;43.34
7614;BME280;3848;42.016;23.098;2024-03-06T12:56:17;96754.13;;;21.04;43.01
7614;BME280;3848;42.016;23.098;2024-03-06T12:58:44;96756.28;;;20.80;40.51
7614;BME280;3848;42.016;23.098;2024-03-06T13:01:11;96733.81;;;20.66;41.57
7614;BME280;3848;42.016;23.098;2024-03-06T13:03:38;96741.97;;;20.75;40.87
7614;BME280;3848;42.016;23.098;2024-03-06T13:06:07;96752.72;;;20.67;40.20
7614;BME280;3848;42.016;23.098;2024-03-06T13:08:34;96739.06;;;20.49;40.98
7614;BME280;3848;42.016;23.098;2024-03-06T13:11:01;96746.94;;;19.97;40.78
7614;BME280;3848;42.016;23.098;2024-03-06T13:13:28;96748.91;;;19.59;42.60
7614;BME280;3848;42.016;23.098;2024-03-06T13:15:58;96741.50;;;19.34;45.33
7614;BME280;3848;42.016;23.098;2024-03-06T13:18:25;96757.09;;;19.14;47.57